Chastang, Alabama
Current Conditions -  °F | °C
As of 10:56 AM on Friday 31 Oct 2014 (Local Time) from KMOB Reporting Station
Few Clouds Few Clouds  
Wind Chill: 66°   Ceiling: Unl
Heat Index: 66°   Visibility: 10mi
Dew Point: 44°   Wind: 8mph
Humidity: 45%   Direction: 260°W
Pressure: 30.03"   Gusts: NA
Location:  31.0984°N, 88.056°W
Report Text: KMOB 311556Z 26007KT 10SM FEW200 19/07 A3003 RMK AO2 SLP167 T01890067
Loading
Personal Weather Stations






























Interactive Weather Map
Tropical Storm Tracking
New forecast layout! Learn more

10-Day Weather Forecast

Advertisements
Track Severe Weather on mobile